createdAt,value
2022-10-13T00:00:15.958Z,8.53
2022-10-13T00:02:43.821Z,8.40
2022-10-13T00:05:12.017Z,11.63
2022-10-13T00:07:39.817Z,10.33
2022-10-13T00:10:08.416Z,9.50
2022-10-13T00:12:38.294Z,7.60
2022-10-13T00:15:08.183Z,10.37
2022-10-13T00:17:37.256Z,8.37
2022-10-13T00:20:05.730Z,8.60
2022-10-13T00:22:33.836Z,9.17
2022-10-13T00:25:01.701Z,6.73
2022-10-13T00:27:29.484Z,7.77
2022-10-13T00:29:58.664Z,8.50
2022-10-13T00:32:26.513Z,9.70
2022-10-13T00:34:54.438Z,8.67
2022-10-13T00:37:22.246Z,11.23
2022-10-13T00:39:50.056Z,11.50
2022-10-13T00:42:18.345Z,8.67
2022-10-13T00:45:08.045Z,10.90
2022-10-13T00:47:39.722Z,7.70
2022-10-13T00:50:11.540Z,8.10
2022-10-13T00:52:41.286Z,9.67
2022-10-13T00:55:12.585Z,10.07
2022-10-13T00:57:42.249Z,6.67
2022-10-13T01:00:13.125Z,6.90
2022-10-13T01:02:41.177Z,7.80
2022-10-13T01:05:09.733Z,6.97
2022-10-13T01:07:37.609Z,8.83
2022-10-13T01:10:06.352Z,10.07
2022-10-13T01:12:45.308Z,6.67
2022-10-13T01:15:23.172Z,7.50
2022-10-13T01:18:01.407Z,6.67
2022-10-13T01:20:59.185Z,6.13
2022-10-13T01:23:56.658Z,7.77
2022-10-13T01:27:04.701Z,6.77
2022-10-13T01:30:04.513Z,6.10
2022-10-13T01:32:37.898Z,9.50
2022-10-13T01:35:10.650Z,6.27
2022-10-13T01:37:46.718Z,5.97
2022-10-13T01:40:19.549Z,7.10
2022-10-13T01:42:54.863Z,12.53
2022-10-13T01:45:30.194Z,7.47
2022-10-13T01:48:00.438Z,5.93
2022-10-13T01:50:29.290Z,5.80
2022-10-13T01:52:59.317Z,7.00
2022-10-13T01:55:28.893Z,5.50
2022-10-13T01:57:56.972Z,6.47
2022-10-13T02:00:27.038Z,8.73
2022-10-13T02:03:07.279Z,6.60
2022-10-13T02:05:49.175Z,6.80
2022-10-13T02:08:25.662Z,4.93
2022-10-13T02:10:59.743Z,6.17
2022-10-13T02:13:30.318Z,8.80
2022-10-13T02:16:02.469Z,6.73
2022-10-13T02:18:33.641Z,6.60
2022-10-13T02:21:02.490Z,7.13
2022-10-13T02:23:30.777Z,7.60
2022-10-13T02:26:00.037Z,5.13
2022-10-13T02:28:29.074Z,9.10
2022-10-13T02:30:57.002Z,5.70
2022-10-13T02:33:26.213Z,6.60
2022-10-13T02:35:53.997Z,4.87
2022-10-13T02:38:22.180Z,4.30
2022-10-13T02:40:50.088Z,5.30
2022-10-13T02:43:17.914Z,8.47
2022-10-13T02:45:45.713Z,7.83
2022-10-13T02:48:13.542Z,5.93
2022-10-13T02:50:42.704Z,11.17
2022-10-13T02:53:10.565Z,4.80
2022-10-13T02:55:38.372Z,5.27
2022-10-13T02:58:06.234Z,6.07
2022-10-13T03:00:34.124Z,5.43
2022-10-13T03:03:02.001Z,9.03
2022-10-13T03:05:29.808Z,5.40
2022-10-13T03:07:58.969Z,6.03
2022-10-13T03:10:27.953Z,5.77
2022-10-13T03:12:56.028Z,5.57
2022-10-13T03:15:24.133Z,4.90
2022-10-13T03:17:52.040Z,5.80
2022-10-13T03:20:19.997Z,8.87
2022-10-13T03:22:49.972Z,6.53
2022-10-13T03:25:19.392Z,6.40
2022-10-13T03:27:47.478Z,5.20
2022-10-13T03:30:15.341Z,7.43
2022-10-13T03:32:43.440Z,4.73
2022-10-13T03:35:11.256Z,7.47
2022-10-13T03:37:39.240Z,4.60
2022-10-13T03:40:08.342Z,6.97
2022-10-13T03:42:39.062Z,6.80
2022-10-13T03:45:08.346Z,6.27
2022-10-13T03:47:36.349Z,6.53
2022-10-13T03:50:05.426Z,8.10
2022-10-13T03:52:33.272Z,4.87
2022-10-13T03:55:01.057Z,6.30
2022-10-13T03:57:29.010Z,10.43
2022-10-13T03:59:58.352Z,8.90
2022-10-13T04:02:26.213Z,9.17
2022-10-13T04:04:54.188Z,10.43
2022-10-13T04:07:22.010Z,8.67
2022-10-13T04:09:50.044Z,8.97
2022-10-13T04:12:20.887Z,10.03
2022-10-13T04:14:49.315Z,10.10
2022-10-13T04:17:18.513Z,13.50
2022-10-13T04:19:46.373Z,16.97
2022-10-13T04:22:14.209Z,12.67
2022-10-13T04:24:42.167Z,11.40
2022-10-13T04:27:10.113Z,14.63
2022-10-13T04:29:37.905Z,14.83
2022-10-13T04:32:05.938Z,13.37
2022-10-13T04:34:35.304Z,12.63
2022-10-13T04:37:03.157Z,11.47
2022-10-13T04:39:31.038Z,12.90
2022-10-13T04:41:59.028Z,11.90
2022-10-13T04:44:26.970Z,11.70
2022-10-13T04:46:54.809Z,11.50
2022-10-13T04:49:22.619Z,12.10
2022-10-13T04:51:51.783Z,13.93
2022-10-13T04:54:19.621Z,11.40
2022-10-13T04:56:47.792Z,15.00
2022-10-13T04:59:15.768Z,13.33
2022-10-13T05:01:43.588Z,11.63
2022-10-13T05:04:11.874Z,14.07
2022-10-13T05:07:05.283Z,16.90
2022-10-13T05:09:30.623Z,12.33
2022-10-13T05:11:58.436Z,12.90
2022-10-13T05:14:26.609Z,13.40
2022-10-13T05:16:54.540Z,13.17
2022-10-13T05:19:22.387Z,12.80
2022-10-13T05:21:50.215Z,14.10
2022-10-13T05:24:18.057Z,13.47
2022-10-13T05:26:47.202Z,14.30
2022-10-13T05:29:15.073Z,14.47
2022-10-13T05:31:42.917Z,13.63
2022-10-13T05:34:11.227Z,18.30
2022-10-13T05:36:39.025Z,13.60
2022-10-13T05:39:08.411Z,14.30
2022-10-13T05:41:36.258Z,13.80
2022-10-13T05:44:09.339Z,15.13
2022-10-13T05:46:37.697Z,15.10
2022-10-13T05:49:05.546Z,15.17
2022-10-13T05:51:38.996Z,14.47
2022-10-13T05:54:11.129Z,14.53
2022-10-13T05:56:42.318Z,17.47
2022-10-13T05:59:14.494Z,15.03
2022-10-13T06:01:43.363Z,14.13
2022-10-13T06:04:18.368Z,15.20
2022-10-13T06:06:46.785Z,13.93
2022-10-13T06:09:14.754Z,15.10
2022-10-13T06:11:42.581Z,13.97
2022-10-13T06:14:11.737Z,15.67
2022-10-13T06:16:39.549Z,16.07
2022-10-13T06:19:07.362Z,16.80
2022-10-13T06:21:36.268Z,15.20
2022-10-13T06:24:04.410Z,15.80
2022-10-13T06:26:32.205Z,16.57
2022-10-13T06:29:00.145Z,14.50
2022-10-13T06:31:29.676Z,15.40
2022-10-13T06:33:57.546Z,16.23
2022-10-13T06:36:25.580Z,15.80
2022-10-13T06:38:53.420Z,14.50
2022-10-13T06:41:21.545Z,15.23
2022-10-13T06:43:49.381Z,15.20
2022-10-13T06:46:17.261Z,15.73
2022-10-13T06:48:46.399Z,13.80
2022-10-13T06:51:14.352Z,15.30
2022-10-13T06:53:42.158Z,15.43
2022-10-13T06:56:10.197Z,15.07
2022-10-13T06:58:38.986Z,14.57
2022-10-13T07:01:07.360Z,13.70
2022-10-13T07:03:35.192Z,15.53
2022-10-13T07:06:05.853Z,15.83
2022-10-13T07:08:34.583Z,15.27
2022-10-13T07:11:11.640Z,16.63
2022-10-13T07:13:46.280Z,14.63
2022-10-13T07:16:15.706Z,15.23
2022-10-13T07:18:43.823Z,15.67
2022-10-13T07:21:13.144Z,14.80
2022-10-13T07:23:41.174Z,15.97
2022-10-13T07:26:09.606Z,18.07
2022-10-13T07:28:37.740Z,15.27
2022-10-13T07:31:10.892Z,13.73
2022-10-13T07:33:39.308Z,14.33
2022-10-13T07:36:08.257Z,13.47
2022-10-13T07:38:37.656Z,15.07
2022-10-13T07:41:07.471Z,14.37
2022-10-13T07:43:35.354Z,13.90
2022-10-13T07:46:05.493Z,14.97
2022-10-13T07:48:34.560Z,19.27
2022-10-13T07:51:06.136Z,15.13
2022-10-13T07:53:35.232Z,17.53
2022-10-13T07:56:06.137Z,14.53
2022-10-13T07:58:34.009Z,14.20
2022-10-13T08:01:03.070Z,12.20
2022-10-13T08:03:31.376Z,15.40
2022-10-13T08:06:00.165Z,13.37
2022-10-13T08:08:28.569Z,13.60
2022-10-13T08:10:56.570Z,11.70
2022-10-13T08:13:25.698Z,12.23
2022-10-13T08:15:53.627Z,10.93
2022-10-13T08:18:21.573Z,11.47
2022-10-13T08:20:49.394Z,11.67
2022-10-13T08:23:17.213Z,11.87
2022-10-13T08:25:45.666Z,10.10
2022-10-13T08:28:19.829Z,10.83
2022-10-13T08:30:50.419Z,11.03
2022-10-13T08:33:18.405Z,10.93
2022-10-13T08:35:46.301Z,12.73
2022-10-13T08:38:14.348Z,10.33
2022-10-13T08:40:46.688Z,11.60
2022-10-13T08:43:18.135Z,10.40
2022-10-13T08:45:46.791Z,10.90
2022-10-13T08:48:20.162Z,10.37
2022-10-13T08:50:50.458Z,10.20
2022-10-13T08:53:24.360Z,10.00
2022-10-13T08:55:56.342Z,9.50
2022-10-13T08:58:26.625Z,9.07
2022-10-13T09:01:03.575Z,10.53
2022-10-13T09:03:33.017Z,10.23
2022-10-13T09:06:11.533Z,10.23
2022-10-13T09:08:44.313Z,9.37
2022-10-13T09:11:13.771Z,12.20
2022-10-13T09:13:41.695Z,11.30
2022-10-13T09:16:09.856Z,10.30
2022-10-13T09:18:39.525Z,9.87
2022-10-13T09:21:12.637Z,9.70
2022-10-13T09:23:41.983Z,11.37
2022-10-13T09:26:18.792Z,9.87
2022-10-13T09:28:47.129Z,9.63
2022-10-13T09:31:18.531Z,8.93
2022-10-13T09:33:57.503Z,9.97
2022-10-13T09:36:25.331Z,8.63
2022-10-13T09:39:15.010Z,10.57
2022-10-13T09:41:44.345Z,8.80
2022-10-13T09:44:15.630Z,8.53
2022-10-13T09:46:49.848Z,8.07
2022-10-13T09:49:34.567Z,8.73
2022-10-13T09:52:04.682Z,9.53
2022-10-13T09:54:43.291Z,9.03
2022-10-13T09:57:21.710Z,8.70
2022-10-13T09:59:51.991Z,8.23
2022-10-13T10:02:32.684Z,9.17
2022-10-13T10:05:08.428Z,9.00
2022-10-13T10:07:36.247Z,8.33
2022-10-13T10:10:09.192Z,8.30
2022-10-13T10:12:40.673Z,7.30
2022-10-13T10:15:21.413Z,7.07
2022-10-13T10:17:55.250Z,10.70
2022-10-13T10:20:42.814Z,6.87
2022-10-13T10:23:17.322Z,7.57
2022-10-13T10:25:50.146Z,8.43
2022-10-13T10:28:36.741Z,8.20
2022-10-13T10:31:14.679Z,9.37
2022-10-13T10:33:56.772Z,8.00
2022-10-13T10:36:33.788Z,10.50
2022-10-13T10:39:09.741Z,8.67
2022-10-13T10:41:45.124Z,11.37
2022-10-13T10:44:16.780Z,8.53
2022-10-13T10:46:48.775Z,8.70
2022-10-13T10:49:20.785Z,8.20
2022-10-13T10:51:50.881Z,7.93
2022-10-13T10:54:31.365Z,9.67
2022-10-13T10:57:05.865Z,11.10
2022-10-13T10:59:51.299Z,9.83
2022-10-13T11:02:44.496Z,8.50
2022-10-13T11:05:13.606Z,9.30
2022-10-13T11:07:59.627Z,9.90
2022-10-13T11:10:29.065Z,8.10
2022-10-13T11:13:25.732Z,8.67
2022-10-13T11:15:53.682Z,9.00
2022-10-13T11:18:55.067Z,8.33
2022-10-13T11:21:22.932Z,8.87
2022-10-13T11:23:52.256Z,9.37
2022-10-13T11:26:33.186Z,8.90
2022-10-13T11:29:01.112Z,10.93
2022-10-13T11:31:35.932Z,8.50
2022-10-13T11:34:05.004Z,8.60
2022-10-13T11:36:52.506Z,8.20
2022-10-13T11:40:01.794Z,9.27
2022-10-13T11:42:58.520Z,8.20
2022-10-13T11:45:39.244Z,9.80
2022-10-13T11:48:31.543Z,9.17
2022-10-13T11:51:16.614Z,8.57
2022-10-13T11:53:53.562Z,8.10
2022-10-13T11:56:32.640Z,8.90
2022-10-13T11:59:00.477Z,9.43
2022-10-13T12:01:28.382Z,9.43
2022-10-13T12:03:57.348Z,9.30
2022-10-13T12:06:33.598Z,7.43
2022-10-13T12:09:04.754Z,10.57
2022-10-13T12:11:36.399Z,9.43
2022-10-13T12:14:08.004Z,9.43
2022-10-13T12:16:35.801Z,8.50
2022-10-13T12:19:11.241Z,9.30
2022-10-13T12:21:51.152Z,11.93
2022-10-13T12:24:18.980Z,7.77
2022-10-13T12:26:48.133Z,9.40
2022-10-13T12:29:17.252Z,9.17
2022-10-13T12:31:47.150Z,8.13
2022-10-13T12:34:21.554Z,9.83
2022-10-13T12:36:56.694Z,8.07
2022-10-13T12:39:26.229Z,9.23
2022-10-13T12:41:56.929Z,9.33
2022-10-13T12:44:27.172Z,9.33
2022-10-13T12:46:58.687Z,10.13
2022-10-13T12:49:28.610Z,9.50
2022-10-13T12:52:05.165Z,8.70
2022-10-13T12:54:35.297Z,11.07
2022-10-13T12:57:08.255Z,8.63
2022-10-13T12:59:42.502Z,7.57
2022-10-13T13:02:21.382Z,9.90
2022-10-13T13:04:49.482Z,8.67
2022-10-13T13:07:29.630Z,10.37
2022-10-13T13:10:17.436Z,9.13
2022-10-13T13:12:47.828Z,7.80
2022-10-13T13:15:34.787Z,8.17
2022-10-13T13:18:30.381Z,7.03
2022-10-13T13:20:58.993Z,7.43
2022-10-13T13:23:33.206Z,10.17
2022-10-13T13:26:03.105Z,9.77
2022-10-13T13:28:33.272Z,9.00
2022-10-13T13:31:01.361Z,8.93
2022-10-13T13:33:29.208Z,9.90
2022-10-13T13:35:57.403Z,8.00
2022-10-13T13:38:25.208Z,12.37
2022-10-13T13:40:53.013Z,9.73
2022-10-13T13:43:20.792Z,9.13
2022-10-13T13:45:50.088Z,8.37
2022-10-13T13:48:17.889Z,9.77
2022-10-13T13:50:45.695Z,7.30
2022-10-13T13:53:13.539Z,9.60
2022-10-13T13:55:42.332Z,7.67
2022-10-13T13:58:10.470Z,7.73
2022-10-13T14:00:38.821Z,9.33
2022-10-13T14:03:07.996Z,9.17
2022-10-13T14:05:39.859Z,9.00
2022-10-13T14:08:08.439Z,9.60
2022-10-13T14:10:36.409Z,7.90
2022-10-13T14:13:04.221Z,9.57
2022-10-13T14:15:32.143Z,8.50
2022-10-13T14:17:59.977Z,8.77
2022-10-13T14:20:29.216Z,12.13
2022-10-13T14:22:57.020Z,8.63
2022-10-13T14:25:25.046Z,11.47
2022-10-13T14:27:53.151Z,8.97
2022-10-13T14:30:21.054Z,9.07
2022-10-13T14:32:48.859Z,13.30
2022-10-13T14:35:16.766Z,11.57
2022-10-13T14:37:45.904Z,8.90
2022-10-13T14:40:13.701Z,7.60
2022-10-13T14:42:42.466Z,9.63
2022-10-13T14:45:12.997Z,8.50
2022-10-13T14:47:40.835Z,9.03
2022-10-13T14:50:09.483Z,8.40
2022-10-13T14:52:37.300Z,9.73
2022-10-13T14:55:07.146Z,8.93
2022-10-13T14:57:34.970Z,8.40
2022-10-13T15:00:02.872Z,9.27
2022-10-13T15:02:31.085Z,9.20
2022-10-13T15:04:58.881Z,10.93
2022-10-13T15:07:26.744Z,10.33
2022-10-13T15:10:04.882Z,9.10
2022-10-13T15:12:34.612Z,8.53
2022-10-13T15:15:02.494Z,8.50
2022-10-13T15:17:33.116Z,12.03
2022-10-13T15:20:01.328Z,8.77
2022-10-13T15:22:29.133Z,8.60
2022-10-13T15:24:56.937Z,8.80
2022-10-13T15:27:24.869Z,9.77
2022-10-13T15:29:54.058Z,8.57
2022-10-13T15:32:22.140Z,9.70
2022-10-13T15:34:50.176Z,8.00
2022-10-13T15:37:17.987Z,7.17
2022-10-13T15:39:45.764Z,9.53
2022-10-13T15:42:13.564Z,12.47
2022-10-13T15:45:08.059Z,9.43
2022-10-13T15:47:30.841Z,8.47
2022-10-13T15:49:58.637Z,8.43
2022-10-13T15:52:30.860Z,9.90
2022-10-13T15:55:01.581Z,10.73
2022-10-13T15:57:29.373Z,28.17
2022-10-13T15:59:57.210Z,10.83
2022-10-13T16:02:25.071Z,6.83
2022-10-13T16:04:54.342Z,9.73
2022-10-13T16:07:22.125Z,11.10
2022-10-13T16:09:49.917Z,7.40
2022-10-13T16:12:18.033Z,8.33
2022-10-13T16:14:46.253Z,7.10
2022-10-13T16:17:14.077Z,6.50
2022-10-13T16:19:41.913Z,6.70
2022-10-13T16:22:11.141Z,6.73
2022-10-13T16:24:39.129Z,11.33
2022-10-13T16:27:07.212Z,6.33
2022-10-13T16:29:35.169Z,8.87
2022-10-13T16:32:03.017Z,9.03
2022-10-13T16:34:30.850Z,6.60
2022-10-13T16:36:59.050Z,9.87
2022-10-13T16:39:28.475Z,13.37
2022-10-13T16:41:56.377Z,9.20
2022-10-13T16:44:24.236Z,6.87
2022-10-13T16:46:53.781Z,6.83
2022-10-13T16:49:21.581Z,7.20
2022-10-13T16:51:49.478Z,8.43
2022-10-13T16:54:17.280Z,6.97
2022-10-13T16:56:46.819Z,11.50
2022-10-13T16:59:14.763Z,7.23
2022-10-13T17:01:42.560Z,12.10
2022-10-13T17:04:10.374Z,7.83
2022-10-13T17:06:39.394Z,10.67
2022-10-13T17:09:07.286Z,8.43
2022-10-13T17:11:37.130Z,7.50
2022-10-13T17:14:06.746Z,7.23
2022-10-13T17:16:35.841Z,7.17
2022-10-13T17:19:04.020Z,6.37
2022-10-13T17:21:31.857Z,4.93
2022-10-13T17:23:59.657Z,9.67
2022-10-13T17:26:27.485Z,8.30
2022-10-13T17:28:55.367Z,7.87
2022-10-13T17:31:25.447Z,5.90
2022-10-13T17:33:54.544Z,13.83
2022-10-13T17:36:24.023Z,19.30
2022-10-13T17:38:53.177Z,11.80
2022-10-13T17:41:21.365Z,19.10
2022-10-13T17:43:49.968Z,12.60
2022-10-13T17:46:37.523Z,10.87
2022-10-13T17:49:08.341Z,16.63
2022-10-13T17:51:36.249Z,17.13
2022-10-13T17:54:04.189Z,9.43
2022-10-13T17:56:32.078Z,10.53
2022-10-13T17:59:01.766Z,7.37
2022-10-13T18:01:31.463Z,8.93
2022-10-13T18:04:00.406Z,7.10
2022-10-13T18:06:36.839Z,7.27
2022-10-13T18:09:07.480Z,12.00
2022-10-13T18:11:36.018Z,18.10
2022-10-13T18:14:04.204Z,9.00
2022-10-13T18:16:32.093Z,8.43
2022-10-13T18:18:59.904Z,12.10
2022-10-13T18:21:29.453Z,11.30
2022-10-13T18:23:59.089Z,12.50
2022-10-13T18:26:29.265Z,9.30
2022-10-13T18:28:58.329Z,8.70
2022-10-13T18:31:28.276Z,9.60
2022-10-13T18:33:57.306Z,7.83
2022-10-13T18:36:27.018Z,8.40
2022-10-13T18:39:01.021Z,8.53
2022-10-13T18:41:28.977Z,8.47
2022-10-13T18:43:56.793Z,9.07
2022-10-13T18:46:25.884Z,9.60
2022-10-13T18:48:53.805Z,7.67
2022-10-13T18:51:21.630Z,9.63
2022-10-13T18:53:50.693Z,14.20
2022-10-13T18:56:22.153Z,9.20
2022-10-13T18:58:54.554Z,8.93
2022-10-13T19:01:27.813Z,8.27
2022-10-13T19:03:56.480Z,7.60
2022-10-13T19:06:27.115Z,8.73
2022-10-13T19:08:56.139Z,8.67
2022-10-13T19:11:25.908Z,10.13
2022-10-13T19:13:54.793Z,10.40
2022-10-13T19:16:24.295Z,11.90
2022-10-13T19:18:52.687Z,9.57
2022-10-13T19:21:22.050Z,8.40
2022-10-13T19:23:50.277Z,11.10
2022-10-13T19:26:20.120Z,6.80
2022-10-13T19:28:49.494Z,7.30
2022-10-13T19:31:20.227Z,8.00
2022-10-13T19:33:49.218Z,7.93
2022-10-13T19:36:23.017Z,6.63
2022-10-13T19:38:51.433Z,9.03
2022-10-13T19:41:19.777Z,13.97
2022-10-13T19:43:49.065Z,9.13
2022-10-13T19:46:16.998Z,7.60
2022-10-13T19:48:45.318Z,9.53
2022-10-13T19:51:13.650Z,9.07
2022-10-13T19:53:42.139Z,10.03
2022-10-13T19:56:19.215Z,9.23
2022-10-13T19:58:47.095Z,11.83
2022-10-13T20:01:16.374Z,8.43
2022-10-13T20:03:44.236Z,9.00
2022-10-13T20:06:12.277Z,6.50
2022-10-13T20:08:40.705Z,7.00
2022-10-13T20:11:09.753Z,6.50
2022-10-13T20:13:38.086Z,8.17
2022-10-13T20:16:07.424Z,6.43
2022-10-13T20:18:36.722Z,10.67
2022-10-13T20:21:05.439Z,6.43
2022-10-13T20:23:33.810Z,8.90
2022-10-13T20:26:03.801Z,6.30
2022-10-13T20:28:31.720Z,6.83
2022-10-13T20:31:02.245Z,8.67
2022-10-13T20:33:30.356Z,8.40
2022-10-13T20:36:01.294Z,9.97
2022-10-13T20:38:30.512Z,12.20
2022-10-13T20:41:05.142Z,7.27
2022-10-13T20:43:33.143Z,11.67
2022-10-13T20:46:02.237Z,7.60
2022-10-13T20:48:51.020Z,7.30
2022-10-13T20:51:23.376Z,9.57
2022-10-13T20:53:51.692Z,6.87
2022-10-13T20:56:22.053Z,7.47
2022-10-13T20:58:50.130Z,6.40
2022-10-13T21:01:18.755Z,6.57
2022-10-13T21:03:46.894Z,9.10
2022-10-13T21:06:15.674Z,7.87
2022-10-13T21:08:47.394Z,7.77
2022-10-13T21:11:17.409Z,7.10
2022-10-13T21:13:45.920Z,6.63
2022-10-13T21:16:15.988Z,7.23
2022-10-13T21:18:47.923Z,7.90
2022-10-13T21:21:17.124Z,6.80
2022-10-13T21:23:46.444Z,6.47
2022-10-13T21:26:18.860Z,6.70
2022-10-13T21:28:49.235Z,8.27
2022-10-13T21:31:18.094Z,7.57
2022-10-13T21:33:46.152Z,10.57
2022-10-13T21:36:15.842Z,7.50
2022-10-13T21:38:46.725Z,7.77
2022-10-13T21:41:15.678Z,7.40
2022-10-13T21:43:43.513Z,12.43
2022-10-13T21:46:12.193Z,6.83
2022-10-13T21:48:40.316Z,9.47
2022-10-13T21:51:12.969Z,9.07
2022-10-13T21:53:40.859Z,8.90
2022-10-13T21:56:11.567Z,9.80
2022-10-13T21:58:39.841Z,10.17
2022-10-13T22:01:08.006Z,9.43
2022-10-13T22:03:36.229Z,9.93
2022-10-13T22:06:08.153Z,8.33
2022-10-13T22:08:39.112Z,9.33
2022-10-13T22:11:09.033Z,9.37
2022-10-13T22:13:39.117Z,9.60
2022-10-13T22:16:09.230Z,9.57
2022-10-13T22:18:37.351Z,12.20
2022-10-13T22:21:08.169Z,9.10
2022-10-13T22:23:36.005Z,9.33
2022-10-13T22:26:03.918Z,9.60
2022-10-13T22:28:36.888Z,9.43
2022-10-13T22:31:08.157Z,9.97
2022-10-13T22:33:37.683Z,10.27
2022-10-13T22:36:09.039Z,11.07
2022-10-13T22:38:37.205Z,9.33
2022-10-13T22:41:06.213Z,9.50
2022-10-13T22:43:34.341Z,8.73
2022-10-13T22:46:02.822Z,9.00
2022-10-13T22:48:34.743Z,8.70
2022-10-13T22:51:05.205Z,9.57
2022-10-13T22:53:33.362Z,7.50
2022-10-13T22:56:01.870Z,6.93
2022-10-13T22:58:29.717Z,9.43
2022-10-13T23:00:57.502Z,8.80
2022-10-13T23:03:25.352Z,6.60
2022-10-13T23:05:54.598Z,7.50
2022-10-13T23:08:22.452Z,6.83
2022-10-13T23:10:50.384Z,6.90
2022-10-13T23:13:18.214Z,5.37
2022-10-13T23:15:46.080Z,5.57
2022-10-13T23:18:14.413Z,6.20
2022-10-13T23:20:42.734Z,6.20
2022-10-13T23:23:11.880Z,4.70
2022-10-13T23:25:39.707Z,7.87
2022-10-13T23:28:07.516Z,7.10
2022-10-13T23:30:35.313Z,5.77
2022-10-13T23:33:03.132Z,5.87
2022-10-13T23:35:31.026Z,6.07
2022-10-13T23:37:58.852Z,7.37
2022-10-13T23:40:27.993Z,7.13
2022-10-13T23:42:55.795Z,5.50
2022-10-13T23:45:23.605Z,9.03
2022-10-13T23:47:51.409Z,6.97
2022-10-13T23:50:19.234Z,6.40
2022-10-13T23:52:47.021Z,5.53
2022-10-13T23:55:14.884Z,5.10
2022-10-13T23:57:44.046Z,6.50
